Flight Track Log - Related Links

Times and Time Zones

All times are in EDT time to prevent confusion due to time zone crossing. See the JBU1329 flight status page for this flight to view local times or setup timezone preferences in your user account.

Time Position Orientation Groundspeed Altitude Reporting Facility
EDT Latitude Longitude Course Direction KTS MPH feet Rate Location/Type
Sun 09:14:09 42.3500 -71.0167 258° West 186 214 600  Level KA90
Sun 09:16:00 42.0911 -71.6691 251° West  Level FlightAware Approximate
Sun 09:16:26 42.3228 -70.8647 104° East 240 276 5,400  Level Boston Center
Sun 09:17:00 42.0767 -71.7467 259° West  Level FlightAware Approximate
Sun 09:17:26 42.3233 -70.7608 90° East 253 291 8,200  Level Boston Center
Sun 09:18:00 42.0649 -71.8253 255° West  Level FlightAware Approximate
Sun 09:18:26 42.2561 -70.7233 158° South 211 243 10,700  Level Boston Center
Sun 09:19:00 42.0496 -71.9028 258° West  Level FlightAware Approximate
Sun 09:19:26 42.1861 -70.7758 209° Southwest 216 249 13,100  Level Boston Center
Sun 09:20:26 42.1669 -70.8911 257° West 216 249 15,700 2,200 Climbing Boston Center
Sun 09:21:26 42.1536 -71.0006 261° West 295 339 17,500 2,450 Climbing Boston Center
Sun 09:22:26 42.1428 -71.1436 264° West 340 391 20,600 2,273 Climbing Boston Center
Sun 09:23:38 42.1256 -71.2700 260° West 353 406 22,500 1,909 Climbing Boston Center
Sun 09:24:38 42.1083 -71.4242 261° West 353 406 24,800 1,900 Climbing Boston Center
Sun 09:25:38 42.0739 -71.5478 249° West 353 406 26,300 1,400 Climbing Boston Center
Sun 09:26:38 42.0308 -71.6492 240° Southwest 352 405 27,600 1,350 Climbing Boston Center
Sun 09:27:38 41.9858 -71.7697 243° Southwest 357 411 29,000 1,600 Climbing Boston Center
Sun 09:28:38 41.9406 -71.8875 243° Southwest 363 418 30,800 1,500 Climbing Boston Center
Sun 09:29:38 41.8972 -72.0050 244° Southwest 363 418 32,000 600 Climbing Boston Center
Sun 09:30:38 41.8519 -72.1225 243° Southwest 358 412 32,000  Level Boston Center
Sun 09:31:38 41.8064 -72.2425 243° Southwest 363 418 32,000  Level Boston Center
Sun 09:32:38 41.7606 -72.3622 243° Southwest 363 418 32,000  Level Boston Center
Sun 09:33:38 41.7147 -72.4819 243° Southwest 363 418 32,000  Level Boston Center
Sun 09:34:38 41.6647 -72.6097 242° Southwest 363 418 32,000  Level Boston Center
Sun 09:35:38 41.6186 -72.7261 242° Southwest 363 418 32,000  Level Boston Center
Sun 09:36:38 41.5722 -72.8481 243° Southwest 363 418 32,000  Level Boston Center
Sun 09:37:38 41.5322 -72.9503 242° Southwest 363 418 32,000  Level Boston Center
Sun 09:38:38 41.4858 -73.0692 243° Southwest 363 418 32,000  Level Boston Center
Sun 09:39:38 41.4497 -73.1628 243° Southwest 363 418 32,000  Level Boston Center
Sun 09:41:31 41.3486 -73.4161 242° Southwest 367 422 32,000  Level New York Center
Sun 09:42:30 41.3022 -73.5303 242° Southwest 362 417 32,000  Level New York Center
Sun 09:43:31 41.2475 -73.6411 237° Southwest 362 417 32,000  Level New York Center
Sun 09:44:29 41.1844 -73.7458 231° Southwest 362 417 32,000  Level New York Center
Sun 09:45:29 41.1256 -73.8478 233° Southwest 367 422 32,000  Level New York Center
Sun 09:46:32 41.0647 -73.9497 232° Southwest 360 414 32,000  Level New York Center
Sun 09:47:29 41.0056 -74.0514 232° Southwest 355 409 32,000 -153 Level New York Center
Sun 09:48:30 40.9467 -74.1528 232° Southwest 361 415 31,700 -836 Descending New York Center
Sun 09:49:31 40.8878 -74.2406 228° Southwest 361 415 30,300 -1,462 Descending New York Center
Sun 09:50:29 40.8267 -74.3361 230° Southwest 361 415 28,800 -1,220 Descending New York Center
Sun 09:51:29 40.7672 -74.4372 232° Southwest 361 415 27,900 -942 Descending New York Center
Sun 09:52:30 40.7078 -74.5381 232° Southwest 361 415 26,900 -992 Descending New York Center
Sun 09:53:30 40.6506 -74.6306 231° Southwest 355 409 25,900 -1,008 Descending New York Center
Sun 09:54:29 40.5953 -74.7286 233° Southwest 348 400 24,900 -1,000 Descending New York Center
Sun 09:55:30 40.5361 -74.8125 227° Southwest 335 386 23,900 -1,000 Descending New York Center
Sun 09:56:29 40.4750 -74.8961 226° Southwest 323 372 22,900 -1,000 Descending New York Center
Sun 09:57:30 40.4114 -74.9850 227° Southwest 323 372 21,900 -992 Descending New York Center
Sun 09:58:30 40.3497 -75.0711 227° Southwest 329 379 20,900 -1,000 Descending New York Center
Sun 09:59:30 40.2906 -75.1547 227° Southwest 329 379 19,900 -942 Descending New York Center
Sun 10:00:31 40.2222 -75.2508 227° Southwest 335 386 19,000 -454 Descending New York Center
Sun 10:01:29 40.1606 -75.3364 227° Southwest 331 381 19,000  Level New York Center
Sun 10:02:30 40.1056 -75.4117 226° Southwest 326 375 19,000  Level New York Center
Sun 10:03:31 40.0417 -75.5022 227° Southwest 326 375 19,000  Level New York Center
Sun 10:04:29 39.9864 -75.5744 225° Southwest 326 375 19,000  Level New York Center
Sun 10:05:29 39.9200 -75.6700 228° Southwest 326 375 19,000 -744 Level New York Center
Sun 10:06:30 39.8750 -75.7506 234° Southwest 326 375 17,500 -1,438 Descending New York Center
Sun 10:07:30 39.8228 -75.8525 236° Southwest 314 361 16,100 -1,337 Descending New York Center
Sun 10:09:52 39.7167 -76.0500 235° Southwest 283 326 13,000 -1,298 Descending Potomac TRACON
Sun 10:10:58 39.6833 -76.1333 243° Southwest 249 287 11,600 -1,200 Descending Potomac TRACON
Sun 10:11:52 39.6500 -76.2000 237° Southwest 251 289 10,600 -1,158 Descending Potomac TRACON
Sun 10:12:52 39.5833 -76.2500 210° Southwest 255 293 9,400 -1,263 Descending Potomac TRACON
Sun 10:13:46 39.5333 -76.3167 226° Southwest 256 295 8,200 -1,278 Descending Potomac TRACON
Sun 10:14:40 39.4833 -76.3667 218° Southwest 256 295 7,100 -1,200 Descending Potomac TRACON
Sun 10:15:46 39.4167 -76.4167 210° Southwest 254 292 5,800 -1,000 Descending Potomac TRACON
Sun 10:16:46 39.3500 -76.4500 201° Southwest 270 311 5,000 -421 Descending Potomac TRACON
Sun 10:17:40 39.2833 -76.4167 159° South 275 316 5,000  Level Potomac TRACON
Sun 10:18:34 39.2167 -76.3833 159° South 275 316 5,000 -450 Level Potomac TRACON
Sun 10:19:40 39.1333 -76.4000 189° South 260 299 4,100 -1,000 Descending Potomac TRACON
Sun 10:20:34 39.0833 -76.4333 207° Southwest 254 292 3,000 -684 Descending Potomac TRACON
Sun 10:21:34 39.0333 -76.4833 218° Southwest 254 292 2,800 -500 Descending Potomac TRACON
Sun 10:22:34 39.0167 -76.5500 252° West 254 292 2,000 -421 Descending Potomac TRACON
Sun 10:23:28 39.0667 -76.5833 333° Northwest 229 264 2,000 -316 Level Potomac TRACON
Sun 10:24:28 39.1167 -76.6167 333° Northwest 160 184 1,400 -626 Descending Potomac TRACON
Sun 10:25:23 39.1333 -76.6333 322° Northwest 129 148 800 -655 Descending Potomac TRACON

Login

Don't have an account? Register now (free) for customized features, flight alerts, and more!